createdAt,value
2022-08-05T00:04:33.516Z,67003.56
2022-08-05T00:09:37.209Z,67061.50
2022-08-05T00:14:42.265Z,67037.78
2022-08-05T00:20:02.444Z,67052.28
2022-08-05T00:25:08.370Z,67033.91
2022-08-05T00:30:17.669Z,67092.66
2022-08-05T00:35:21.698Z,67016.06
2022-08-05T00:40:51.911Z,66924.09
2022-08-05T00:45:58.401Z,66944.44
2022-08-05T00:51:02.831Z,67032.91
2022-08-05T00:56:26.493Z,66995.09
2022-08-05T01:01:42.916Z,66973.06
2022-08-05T01:06:52.957Z,67002.19
2022-08-05T01:12:09.263Z,67080.84
2022-08-05T01:17:29.165Z,67088.94
2022-08-05T01:22:57.182Z,67085.25
2022-08-05T01:28:16.766Z,67085.13
2022-08-05T01:33:25.247Z,67103.53
2022-08-05T01:38:31.039Z,67066.84
2022-08-05T01:43:37.423Z,67098.66
2022-08-05T01:48:49.775Z,67078.75
2022-08-05T01:53:58.542Z,67060.97
2022-08-05T01:59:08.007Z,67040.00
2022-08-05T02:04:13.125Z,66999.88
2022-08-05T02:09:17.037Z,67016.28
2022-08-05T02:14:32.080Z,67036.00
2022-08-05T02:19:46.934Z,67014.56
2022-08-05T02:24:53.595Z,67035.59
2022-08-05T02:30:02.168Z,67059.28
2022-08-05T02:35:14.197Z,67028.06
2022-08-05T02:40:18.591Z,67073.84
2022-08-05T02:45:25.668Z,67024.75
2022-08-05T02:50:30.421Z,67033.91
2022-08-05T02:55:54.688Z,67019.97
2022-08-05T03:01:02.667Z,66991.34
2022-08-05T03:06:56.224Z,66949.91
2022-08-05T03:11:56.530Z,66940.13
2022-08-05T03:16:55.761Z,66986.56
2022-08-05T03:21:59.581Z,66985.47
2022-08-05T03:27:03.442Z,67034.59
2022-08-05T03:32:12.452Z,67010.88
2022-08-05T03:37:18.125Z,67046.88
2022-08-05T03:42:22.002Z,66983.25
2022-08-05T03:47:35.204Z,67051.81
2022-08-05T03:55:34.516Z,67054.97
2022-08-05T03:58:17.513Z,67069.47
2022-08-05T04:03:28.243Z,67091.09
2022-08-05T04:08:36.250Z,67051.81
2022-08-05T04:13:50.421Z,67140.81
2022-08-05T04:18:57.796Z,67168.34
2022-08-05T04:24:06.700Z,67150.53
2022-08-05T04:29:12.864Z,67167.88
2022-08-05T04:34:33.117Z,67221.25
2022-08-05T04:39:39.153Z,67221.19
2022-08-05T04:44:43.673Z,67258.59
2022-08-05T04:50:01.474Z,67289.31
2022-08-05T04:55:14.413Z,67311.88
2022-08-05T05:00:19.359Z,67328.22
2022-08-05T05:05:29.406Z,67383.34
2022-08-05T05:10:34.711Z,67412.53
2022-08-05T05:15:57.219Z,67443.34
2022-08-05T05:21:04.350Z,67507.75
2022-08-05T05:26:09.348Z,67769.81
2022-08-05T05:31:13.355Z,67920.50
2022-08-05T05:36:18.478Z,67889.09
2022-08-05T05:41:23.395Z,67792.66
2022-08-05T05:46:27.775Z,67713.44
2022-08-05T05:51:49.586Z,67720.03
2022-08-05T05:56:53.734Z,67669.53
2022-08-05T06:01:58.183Z,67683.72
2022-08-05T06:07:03.831Z,67743.84
2022-08-05T06:12:09.515Z,67790.97
2022-08-05T06:17:22.334Z,68084.38
2022-08-05T06:22:33.304Z,68012.78
2022-08-05T06:28:12.138Z,68013.31
2022-08-05T06:33:01.873Z,67973.69
2022-08-05T06:38:11.199Z,67973.13
2022-08-05T06:43:59.228Z,68001.88
2022-08-05T06:48:56.888Z,67994.78
2022-08-05T06:54:05.528Z,67960.66
2022-08-05T06:59:14.545Z,67944.47
2022-08-05T07:04:24.378Z,68088.13
2022-08-05T07:09:32.392Z,68111.50
2022-08-05T07:15:10.295Z,68044.81
2022-08-05T07:20:32.868Z,68060.50
2022-08-05T07:25:56.493Z,68076.88
2022-08-05T07:31:01.172Z,68169.19
2022-08-05T07:36:21.498Z,68128.34
2022-08-05T07:42:13.860Z,68095.78
2022-08-05T07:47:01.764Z,68147.97
2022-08-05T07:52:11.766Z,68153.38
2022-08-05T07:57:41.678Z,68134.38
2022-08-05T08:03:13.249Z,68165.38
2022-08-05T08:08:07.919Z,68213.69
2022-08-05T08:13:21.983Z,68259.41
2022-08-05T08:18:33.097Z,68310.38
2022-08-05T08:24:01.457Z,68296.28
2022-08-05T08:29:29.504Z,68308.22
2022-08-05T08:34:30.867Z,68254.94
2022-08-05T08:39:38.165Z,68259.88
2022-08-05T08:45:25.273Z,68272.28
2022-08-05T08:50:32.220Z,68306.63
2022-08-05T08:56:02.849Z,68334.28
2022-08-05T09:01:16.469Z,68241.94
2022-08-05T09:06:27.847Z,68250.09
2022-08-05T09:11:50.724Z,68304.50
2022-08-05T09:16:59.152Z,68455.03
2022-08-05T09:22:24.908Z,68384.34
2022-08-05T09:28:05.219Z,68491.56
2022-08-05T09:33:04.542Z,68404.00
2022-08-05T09:38:17.763Z,68378.41
2022-08-05T09:43:40.249Z,68469.78
2022-08-05T09:49:06.552Z,68519.25
2022-08-05T09:54:11.556Z,68445.25
2022-08-05T09:59:18.636Z,68410.53
2022-08-05T10:04:41.088Z,68574.81
2022-08-05T10:10:14.212Z,68555.22
2022-08-05T10:15:25.647Z,68542.72
2022-08-05T10:20:33.084Z,68522.00
2022-08-05T10:25:37.190Z,68495.34
2022-08-05T10:32:47.137Z,68490.97
2022-08-05T10:36:07.187Z,68603.66
2022-08-05T10:41:23.665Z,68622.19
2022-08-05T10:46:44.375Z,68614.53
2022-08-05T10:52:10.250Z,68484.38
2022-08-05T10:57:29.693Z,68566.13
2022-08-05T11:02:38.765Z,68655.34
2022-08-05T11:08:17.087Z,68567.16
2022-08-05T11:13:54.923Z,68712.03
2022-08-05T11:20:10.613Z,68612.91
2022-08-05T11:26:05.735Z,68783.38
2022-08-05T11:31:58.023Z,68796.50
2022-08-05T11:36:54.910Z,69074.69
2022-08-05T11:42:04.554Z,69138.00
2022-08-05T11:47:15.239Z,69150.00
2022-08-05T11:52:29.036Z,69229.72
2022-08-05T11:57:39.339Z,69312.75
2022-08-05T12:02:58.770Z,69433.53
2022-08-05T12:08:09.840Z,69455.41
2022-08-05T12:13:18.818Z,69529.25
2022-08-05T12:18:42.727Z,69443.94
2022-08-05T12:23:54.954Z,69472.91
2022-08-05T12:28:58.603Z,69534.72
2022-08-05T12:34:05.018Z,69468.56
2022-08-05T12:39:11.277Z,69371.25
2022-08-05T12:44:28.494Z,69330.25
2022-08-05T12:50:04.652Z,69401.81
2022-08-05T12:55:22.363Z,69347.72
2022-08-05T13:02:02.756Z,69319.28
2022-08-05T13:05:55.200Z,69497.50
2022-08-05T13:11:01.736Z,69436.81
2022-08-05T13:16:15.364Z,69302.88
2022-08-05T13:21:22.702Z,69430.25
2022-08-05T13:26:32.325Z,69343.34
2022-08-05T13:32:03.846Z,69373.41
2022-08-05T13:37:02.346Z,69320.41
2022-08-05T13:42:06.446Z,69399.09
2022-08-05T13:47:10.495Z,69267.44
2022-08-05T13:52:38.785Z,69558.75
2022-08-05T13:57:50.775Z,69460.84
2022-08-05T14:02:57.070Z,69505.72
2022-08-05T14:08:20.269Z,69576.28
2022-08-05T14:13:25.715Z,69478.41
2022-08-05T14:18:30.264Z,69450.50
2022-08-05T14:23:37.265Z,69499.16
2022-08-05T14:28:52.298Z,69459.22
2022-08-05T14:34:00.551Z,69583.38
2022-08-05T14:39:06.896Z,69524.88
2022-08-05T14:44:21.759Z,69493.16
2022-08-05T14:49:25.749Z,69435.72
2022-08-05T14:54:52.925Z,69397.44
2022-08-05T14:59:57.174Z,69352.09
2022-08-05T15:05:02.490Z,69475.63
2022-08-05T15:10:18.467Z,69528.69
2022-08-05T15:15:55.049Z,69390.34
2022-08-05T15:20:56.492Z,69305.09
2022-08-05T15:26:03.087Z,69246.63
2022-08-05T15:31:07.096Z,69338.97
2022-08-05T15:36:17.746Z,69492.59
2022-08-05T15:41:55.838Z,69420.44
2022-08-05T15:46:53.913Z,69422.06
2022-08-05T15:52:13.239Z,69431.91
2022-08-05T15:57:24.884Z,69393.06
2022-08-05T16:02:31.871Z,69372.31
2022-08-05T16:07:36.305Z,69446.09
2022-08-05T16:12:41.645Z,69467.44
2022-08-05T16:17:57.314Z,69214.41
2022-08-05T16:23:02.033Z,68993.91
2022-08-05T16:28:09.440Z,68915.91
2022-08-05T16:33:14.274Z,68753.94
2022-08-05T16:38:25.655Z,68700.03
2022-08-05T16:43:34.880Z,68598.22
2022-08-05T16:48:39.279Z,68527.94
2022-08-05T16:54:04.365Z,68509.44
2022-08-05T16:59:10.295Z,68439.84
2022-08-05T17:04:15.035Z,68413.69
2022-08-05T17:09:19.168Z,68402.25
2022-08-05T17:14:36.773Z,68372.31
2022-08-05T17:19:45.603Z,68401.72
2022-08-05T17:24:58.136Z,68338.66
2022-08-05T17:30:12.146Z,68304.41
2022-08-05T17:35:23.028Z,68257.66
2022-08-05T17:40:26.857Z,68246.22
2022-08-05T17:45:38.600Z,68274.97
2022-08-05T17:50:43.154Z,68263.56
2022-08-05T17:55:46.796Z,68255.38
2022-08-05T18:00:51.908Z,68245.69
2022-08-05T18:06:04.014Z,68216.22
2022-08-05T18:11:08.362Z,68183.81
2022-08-05T18:16:20.240Z,68199.00
2022-08-05T18:21:26.148Z,68191.81
2022-08-05T18:26:32.090Z,68153.38
2022-08-05T18:31:38.002Z,68142.94
2022-08-05T18:36:46.907Z,68147.88
2022-08-05T18:42:01.232Z,68121.84
2022-08-05T18:47:12.198Z,68134.81
2022-08-05T18:52:35.949Z,68123.47
2022-08-05T18:57:43.678Z,68121.81
2022-08-05T19:03:04.006Z,68046.91
2022-08-05T19:08:12.271Z,68067.00
2022-08-05T19:13:20.447Z,68076.09
2022-08-05T19:18:25.675Z,68054.53
2022-08-05T19:24:06.525Z,68027.84
2022-08-05T19:28:55.496Z,68027.84
2022-08-05T19:34:02.268Z,68033.25
2022-08-05T19:39:07.648Z,68043.03
2022-08-05T19:44:13.408Z,68011.50
2022-08-05T19:49:19.308Z,67975.69
2022-08-05T19:54:29.487Z,67992.00
2022-08-05T19:59:59.467Z,67960.66
2022-08-05T20:05:01.105Z,67865.63
2022-08-05T20:10:13.157Z,67782.25
2022-08-05T20:15:23.374Z,67796.72
2022-08-05T20:20:46.724Z,67773.53
2022-08-05T20:25:52.316Z,67801.16
2022-08-05T20:30:57.358Z,67783.19
2022-08-05T20:36:03.051Z,67742.56
2022-08-05T20:41:08.061Z,67734.47
2022-08-05T20:46:18.248Z,67732.34
2022-08-05T20:51:23.861Z,67764.22
2022-08-05T20:56:29.829Z,67635.94
2022-08-05T21:01:38.671Z,67556.91
2022-08-05T21:06:45.514Z,67507.50
2022-08-05T21:12:09.644Z,67523.38
2022-08-05T21:17:13.769Z,67528.72
2022-08-05T21:22:23.509Z,67535.84
2022-08-05T21:27:28.095Z,67554.75
2022-08-05T21:32:42.484Z,67547.66
2022-08-05T21:37:53.282Z,67460.00
2022-08-05T21:42:59.064Z,67473.59
2022-08-05T21:48:09.973Z,67519.50
2022-08-05T21:54:18.159Z,67620.72
2022-08-05T22:00:14.411Z,67647.38
2022-08-05T22:05:27.419Z,67663.00
2022-08-05T22:10:46.496Z,67689.56
2022-08-05T22:16:41.491Z,67654.34
2022-08-05T22:21:50.750Z,67677.09
2022-08-05T22:27:16.672Z,67689.50
2022-08-05T22:32:21.055Z,67683.00
2022-08-05T22:37:58.051Z,67678.25
2022-08-05T22:42:57.808Z,67665.25
2022-08-05T22:48:01.954Z,67638.66
2022-08-05T22:53:09.852Z,67586.00
2022-08-05T22:58:15.009Z,67592.03
2022-08-05T23:03:58.833Z,67529.84
2022-08-05T23:08:55.651Z,67507.66
2022-08-05T23:14:22.394Z,67489.16
2022-08-05T23:19:26.427Z,67498.88
2022-08-05T23:24:30.196Z,67502.19
2022-08-05T23:29:35.202Z,67417.88
2022-08-05T23:34:40.420Z,67420.44
2022-08-05T23:39:53.680Z,67406.03
2022-08-05T23:44:59.072Z,67345.94
2022-08-05T23:50:03.147Z,67274.59
2022-08-05T23:55:13.200Z,67305.94
